sensor_id;sensor_type;location;lat;lon;timestamp;pressure;altitude;pressure_sealevel;temperature;humidity
55679;BME280;41573;51.446;-2.018;2022-10-16T00:01:19;99538.47;;;11.52;100.00
55679;BME280;41573;51.446;-2.018;2022-10-16T00:03:46;99545.25;;;11.56;100.00
55679;BME280;41573;51.446;-2.018;2022-10-16T00:06:13;99541.25;;;11.51;100.00
55679;BME280;41573;51.446;-2.018;2022-10-16T00:08:39;99549.25;;;11.51;100.00
55679;BME280;41573;51.446;-2.018;2022-10-16T00:11:07;99541.63;;;11.58;100.00
55679;BME280;41573;51.446;-2.018;2022-10-16T00:13:34;99550.31;;;11.60;100.00
55679;BME280;41573;51.446;-2.018;2022-10-16T00:16:00;99560.78;;;11.63;100.00
55679;BME280;41573;51.446;-2.018;2022-10-16T00:18:27;99558.81;;;11.65;100.00
55679;BME280;41573;51.446;-2.018;2022-10-16T00:20:53;99557.09;;;11.64;100.00
55679;BME280;41573;51.446;-2.018;2022-10-16T00:23:18;99550.81;;;11.65;100.00
55679;BME280;41573;51.446;-2.018;2022-10-16T00:25:44;99555.19;;;11.66;100.00
55679;BME280;41573;51.446;-2.018;2022-10-16T00:28:09;99547.31;;;11.64;100.00
55679;BME280;41573;51.446;-2.018;2022-10-16T00:30:38;99549.59;;;11.69;100.00
55679;BME280;41573;51.446;-2.018;2022-10-16T00:33:04;99545.09;;;11.69;100.00
55679;BME280;41573;51.446;-2.018;2022-10-16T00:35:30;99539.88;;;11.68;100.00
55679;BME280;41573;51.446;-2.018;2022-10-16T00:37:56;99544.25;;;11.69;100.00
55679;BME280;41573;51.446;-2.018;2022-10-16T00:40:21;99534.81;;;11.65;100.00
55679;BME280;41573;51.446;-2.018;2022-10-16T00:42:47;99549.22;;;11.62;100.00
55679;BME280;41573;51.446;-2.018;2022-10-16T00:45:12;99546.81;;;11.59;100.00
55679;BME280;41573;51.446;-2.018;2022-10-16T00:47:43;99539.31;;;11.64;100.00
55679;BME280;41573;51.446;-2.018;2022-10-16T00:52:48;99555.31;;;11.64;100.00
55679;BME280;41573;51.446;-2.018;2022-10-16T00:55:15;99562.44;;;11.64;100.00
55679;BME280;41573;51.446;-2.018;2022-10-16T00:57:41;99555.50;;;11.72;100.00
55679;BME280;41573;51.446;-2.018;2022-10-16T01:00:09;99557.34;;;11.72;100.00
55679;BME280;41573;51.446;-2.018;2022-10-16T01:02:35;99557.47;;;11.70;100.00
55679;BME280;41573;51.446;-2.018;2022-10-16T01:05:00;99552.97;;;11.71;100.00
55679;BME280;41573;51.446;-2.018;2022-10-16T01:12:39;99564.41;;;11.62;100.00
55679;BME280;41573;51.446;-2.018;2022-10-16T01:18:35;99565.34;;;11.61;100.00
55679;BME280;41573;51.446;-2.018;2022-10-16T01:21:05;99569.38;;;11.55;100.00
55679;BME280;41573;51.446;-2.018;2022-10-16T01:23:49;99568.53;;;11.54;100.00
55679;BME280;41573;51.446;-2.018;2022-10-16T01:31:12;99574.34;;;11.48;100.00
55679;BME280;41573;51.446;-2.018;2022-10-16T01:33:44;99577.13;;;11.47;100.00
55679;BME280;41573;51.446;-2.018;2022-10-16T01:36:14;99581.25;;;11.39;100.00
55679;BME280;41573;51.446;-2.018;2022-10-16T01:38:41;99578.72;;;11.38;100.00
55679;BME280;41573;51.446;-2.018;2022-10-16T01:41:17;99577.50;;;11.31;100.00
55679;BME280;41573;51.446;-2.018;2022-10-16T01:43:49;99584.19;;;11.25;100.00
55679;BME280;41573;51.446;-2.018;2022-10-16T01:46:18;99602.47;;;11.18;100.00
55679;BME280;41573;51.446;-2.018;2022-10-16T01:48:46;99601.25;;;11.11;100.00
55679;BME280;41573;51.446;-2.018;2022-10-16T01:51:13;99592.53;;;11.09;100.00
55679;BME280;41573;51.446;-2.018;2022-10-16T01:53:41;99598.69;;;11.10;100.00
55679;BME280;41573;51.446;-2.018;2022-10-16T01:56:10;99607.31;;;11.13;100.00
55679;BME280;41573;51.446;-2.018;2022-10-16T01:58:42;99602.09;;;11.00;100.00
55679;BME280;41573;51.446;-2.018;2022-10-16T02:01:11;99599.78;;;11.07;100.00
55679;BME280;41573;51.446;-2.018;2022-10-16T02:03:40;99613.84;;;11.09;100.00
55679;BME280;41573;51.446;-2.018;2022-10-16T02:06:08;99611.88;;;11.00;100.00
55679;BME280;41573;51.446;-2.018;2022-10-16T02:08:34;99617.22;;;11.00;100.00
55679;BME280;41573;51.446;-2.018;2022-10-16T02:11:01;99622.19;;;10.93;100.00
55679;BME280;41573;51.446;-2.018;2022-10-16T02:13:34;99611.28;;;10.96;100.00
55679;BME280;41573;51.446;-2.018;2022-10-16T02:16:02;99622.53;;;11.00;100.00
55679;BME280;41573;51.446;-2.018;2022-10-16T02:18:27;99632.97;;;10.92;100.00
55679;BME280;41573;51.446;-2.018;2022-10-16T02:21:36;99630.31;;;10.92;100.00
55679;BME280;41573;51.446;-2.018;2022-10-16T02:24:18;99636.94;;;10.86;100.00
55679;BME280;41573;51.446;-2.018;2022-10-16T02:26:52;99644.31;;;10.82;100.00
55679;BME280;41573;51.446;-2.018;2022-10-16T02:29:23;99660.19;;;10.84;100.00
55679;BME280;41573;51.446;-2.018;2022-10-16T02:31:55;99647.72;;;10.84;100.00
55679;BME280;41573;51.446;-2.018;2022-10-16T02:34:22;99663.72;;;10.84;100.00
55679;BME280;41573;51.446;-2.018;2022-10-16T02:36:50;99661.97;;;10.72;100.00
55679;BME280;41573;51.446;-2.018;2022-10-16T02:39:16;99666.09;;;10.76;100.00
55679;BME280;41573;51.446;-2.018;2022-10-16T02:41:42;99661.50;;;10.78;100.00
55679;BME280;41573;51.446;-2.018;2022-10-16T02:44:08;99668.88;;;10.75;100.00
55679;BME280;41573;51.446;-2.018;2022-10-16T02:46:33;99669.44;;;10.67;100.00
55679;BME280;41573;51.446;-2.018;2022-10-16T02:48:58;99681.28;;;10.63;100.00
55679;BME280;41573;51.446;-2.018;2022-10-16T02:51:24;99674.03;;;10.65;100.00
55679;BME280;41573;51.446;-2.018;2022-10-16T02:53:49;99677.91;;;10.61;100.00
55679;BME280;41573;51.446;-2.018;2022-10-16T02:56:15;99679.31;;;10.54;100.00
55679;BME280;41573;51.446;-2.018;2022-10-16T02:58:40;99693.34;;;10.56;100.00
55679;BME280;41573;51.446;-2.018;2022-10-16T03:01:05;99698.91;;;10.52;100.00
55679;BME280;41573;51.446;-2.018;2022-10-16T03:03:31;99697.31;;;10.50;100.00
55679;BME280;41573;51.446;-2.018;2022-10-16T03:05:56;99709.78;;;10.49;100.00
55679;BME280;41573;51.446;-2.018;2022-10-16T03:08:22;99702.03;;;10.46;100.00
55679;BME280;41573;51.446;-2.018;2022-10-16T03:10:50;99708.09;;;10.48;100.00
55679;BME280;41573;51.446;-2.018;2022-10-16T03:13:16;99710.03;;;10.46;100.00
55679;BME280;41573;51.446;-2.018;2022-10-16T03:15:41;99707.59;;;10.43;100.00
55679;BME280;41573;51.446;-2.018;2022-10-16T03:18:06;99706.13;;;10.39;100.00
55679;BME280;41573;51.446;-2.018;2022-10-16T03:20:32;99716.00;;;10.37;100.00
55679;BME280;41573;51.446;-2.018;2022-10-16T03:22:57;99712.63;;;10.35;100.00
55679;BME280;41573;51.446;-2.018;2022-10-16T03:25:23;99726.97;;;10.32;100.00
55679;BME280;41573;51.446;-2.018;2022-10-16T03:27:48;99727.81;;;10.33;100.00
55679;BME280;41573;51.446;-2.018;2022-10-16T03:30:14;99731.34;;;10.33;100.00
55679;BME280;41573;51.446;-2.018;2022-10-16T03:32:39;99734.13;;;10.32;100.00
55679;BME280;41573;51.446;-2.018;2022-10-16T03:35:05;99740.38;;;10.31;100.00
55679;BME280;41573;51.446;-2.018;2022-10-16T03:37:30;99747.13;;;10.24;100.00
55679;BME280;41573;51.446;-2.018;2022-10-16T03:39:56;99743.69;;;10.22;100.00
55679;BME280;41573;51.446;-2.018;2022-10-16T03:42:21;99748.78;;;10.25;100.00
55679;BME280;41573;51.446;-2.018;2022-10-16T03:44:46;99761.03;;;10.27;100.00
55679;BME280;41573;51.446;-2.018;2022-10-16T03:47:12;99759.25;;;10.28;100.00
55679;BME280;41573;51.446;-2.018;2022-10-16T03:49:37;99773.72;;;10.24;100.00
55679;BME280;41573;51.446;-2.018;2022-10-16T03:52:03;99778.28;;;10.22;100.00
55679;BME280;41573;51.446;-2.018;2022-10-16T03:54:28;99781.41;;;10.15;100.00
55679;BME280;41573;51.446;-2.018;2022-10-16T03:56:56;99785.66;;;10.18;100.00
55679;BME280;41573;51.446;-2.018;2022-10-16T03:59:22;99781.19;;;10.18;100.00
55679;BME280;41573;51.446;-2.018;2022-10-16T04:01:47;99786.50;;;10.18;100.00
55679;BME280;41573;51.446;-2.018;2022-10-16T04:04:12;99791.22;;;10.15;100.00
55679;BME280;41573;51.446;-2.018;2022-10-16T04:06:38;99789.50;;;10.14;100.00
55679;BME280;41573;51.446;-2.018;2022-10-16T04:09:03;99796.53;;;10.15;100.00
55679;BME280;41573;51.446;-2.018;2022-10-16T04:11:29;99795.44;;;10.17;100.00
55679;BME280;41573;51.446;-2.018;2022-10-16T04:13:54;99802.25;;;10.09;100.00
55679;BME280;41573;51.446;-2.018;2022-10-16T04:16:20;99819.72;;;10.00;100.00
55679;BME280;41573;51.446;-2.018;2022-10-16T04:18:45;99826.44;;;9.93;100.00
55679;BME280;41573;51.446;-2.018;2022-10-16T04:21:11;99824.63;;;9.80;100.00
55679;BME280;41573;51.446;-2.018;2022-10-16T04:23:36;99830.81;;;9.81;100.00
55679;BME280;41573;51.446;-2.018;2022-10-16T04:26:02;99832.09;;;9.75;100.00
55679;BME280;41573;51.446;-2.018;2022-10-16T04:28:28;99837.81;;;9.69;100.00
55679;BME280;41573;51.446;-2.018;2022-10-16T04:30:53;99839.94;;;9.64;100.00
55679;BME280;41573;51.446;-2.018;2022-10-16T04:33:19;99850.69;;;9.62;100.00
55679;BME280;41573;51.446;-2.018;2022-10-16T04:35:44;99838.47;;;9.73;100.00
55679;BME280;41573;51.446;-2.018;2022-10-16T04:38:10;99831.09;;;9.89;100.00
55679;BME280;41573;51.446;-2.018;2022-10-16T04:40:35;99840.38;;;9.96;100.00
55679;BME280;41573;51.446;-2.018;2022-10-16T04:43:03;99837.63;;;9.98;100.00
55679;BME280;41573;51.446;-2.018;2022-10-16T04:45:28;99849.66;;;10.04;100.00
55679;BME280;41573;51.446;-2.018;2022-10-16T04:47:57;99850.69;;;10.01;100.00
55679;BME280;41573;51.446;-2.018;2022-10-16T04:50:22;99849.94;;;9.99;100.00
55679;BME280;41573;51.446;-2.018;2022-10-16T04:52:48;99853.25;;;9.90;100.00
55679;BME280;41573;51.446;-2.018;2022-10-16T04:55:13;99855.81;;;9.78;100.00
55679;BME280;41573;51.446;-2.018;2022-10-16T04:57:38;99857.63;;;9.78;100.00
55679;BME280;41573;51.446;-2.018;2022-10-16T05:00:05;99869.19;;;9.77;100.00
55679;BME280;41573;51.446;-2.018;2022-10-16T05:02:30;99878.22;;;9.74;100.00
55679;BME280;41573;51.446;-2.018;2022-10-16T05:04:55;99876.53;;;9.73;100.00
55679;BME280;41573;51.446;-2.018;2022-10-16T05:07:21;99896.50;;;9.66;100.00
55679;BME280;41573;51.446;-2.018;2022-10-16T05:09:46;99901.94;;;9.64;100.00
55679;BME280;41573;51.446;-2.018;2022-10-16T05:12:12;99905.75;;;9.60;100.00
55679;BME280;41573;51.446;-2.018;2022-10-16T05:14:37;99904.34;;;9.55;100.00
55679;BME280;41573;51.446;-2.018;2022-10-16T05:17:03;99908.28;;;9.49;100.00
55679;BME280;41573;51.446;-2.018;2022-10-16T05:19:28;99910.50;;;9.42;100.00
55679;BME280;41573;51.446;-2.018;2022-10-16T05:21:54;99911.66;;;9.38;100.00
55679;BME280;41573;51.446;-2.018;2022-10-16T05:24:19;99916.88;;;9.40;100.00
55679;BME280;41573;51.446;-2.018;2022-10-16T05:26:44;99915.06;;;9.40;100.00
55679;BME280;41573;51.446;-2.018;2022-10-16T05:29:10;99922.66;;;9.32;100.00
55679;BME280;41573;51.446;-2.018;2022-10-16T05:31:35;99942.63;;;9.25;100.00
55679;BME280;41573;51.446;-2.018;2022-10-16T05:34:01;99942.09;;;9.20;100.00
55679;BME280;41573;51.446;-2.018;2022-10-16T05:36:27;99947.13;;;9.10;100.00
55679;BME280;41573;51.446;-2.018;2022-10-16T05:38:52;99958.34;;;9.01;100.00
55679;BME280;41573;51.446;-2.018;2022-10-16T05:41:18;99959.78;;;8.92;100.00
55679;BME280;41573;51.446;-2.018;2022-10-16T05:43:47;99965.50;;;8.86;100.00
55679;BME280;41573;51.446;-2.018;2022-10-16T05:46:13;99973.81;;;8.79;100.00
55679;BME280;41573;51.446;-2.018;2022-10-16T05:48:39;99969.66;;;8.75;100.00
55679;BME280;41573;51.446;-2.018;2022-10-16T05:51:06;99975.06;;;8.74;100.00
55679;BME280;41573;51.446;-2.018;2022-10-16T05:53:34;99977.72;;;8.74;100.00
55679;BME280;41573;51.446;-2.018;2022-10-16T05:56:00;99983.22;;;8.71;100.00
55679;BME280;41573;51.446;-2.018;2022-10-16T05:58:29;99983.22;;;8.71;100.00
55679;BME280;41573;51.446;-2.018;2022-10-16T06:01:00;99988.44;;;8.72;100.00
55679;BME280;41573;51.446;-2.018;2022-10-16T06:03:26;99976.97;;;8.72;100.00
55679;BME280;41573;51.446;-2.018;2022-10-16T06:05:52;99991.09;;;8.72;100.00
55679;BME280;41573;51.446;-2.018;2022-10-16T06:08:19;99989.84;;;8.78;100.00
55679;BME280;41573;51.446;-2.018;2022-10-16T06:10:45;99982.75;;;8.78;100.00
55679;BME280;41573;51.446;-2.018;2022-10-16T06:13:11;99986.84;;;8.84;100.00
55679;BME280;41573;51.446;-2.018;2022-10-16T06:15:37;99994.59;;;8.87;100.00
55679;BME280;41573;51.446;-2.018;2022-10-16T06:18:04;99992.03;;;8.86;100.00
55679;BME280;41573;51.446;-2.018;2022-10-16T06:20:29;99994.22;;;8.93;100.00
55679;BME280;41573;51.446;-2.018;2022-10-16T06:22:55;99994.88;;;8.97;100.00
55679;BME280;41573;51.446;-2.018;2022-10-16T06:25:20;99989.38;;;9.00;100.00
55679;BME280;41573;51.446;-2.018;2022-10-16T06:27:46;99994.09;;;8.95;100.00
55679;BME280;41573;51.446;-2.018;2022-10-16T06:30:11;99993.16;;;8.96;100.00
55679;BME280;41573;51.446;-2.018;2022-10-16T06:32:36;99996.75;;;8.95;100.00
55679;BME280;41573;51.446;-2.018;2022-10-16T06:35:02;99991.75;;;8.90;100.00
55679;BME280;41573;51.446;-2.018;2022-10-16T06:37:27;99997.91;;;8.91;100.00
55679;BME280;41573;51.446;-2.018;2022-10-16T06:39:52;100005.13;;;8.89;100.00
55679;BME280;41573;51.446;-2.018;2022-10-16T06:42:18;100006.25;;;8.85;100.00
55679;BME280;41573;51.446;-2.018;2022-10-16T06:44:44;100010.91;;;8.81;100.00
55679;BME280;41573;51.446;-2.018;2022-10-16T06:47:09;100013.66;;;8.79;100.00
55679;BME280;41573;51.446;-2.018;2022-10-16T06:49:35;100021.25;;;8.71;100.00
55679;BME280;41573;51.446;-2.018;2022-10-16T06:52:00;100023.31;;;8.66;100.00
55679;BME280;41573;51.446;-2.018;2022-10-16T06:54:26;100030.72;;;8.61;100.00
55679;BME280;41573;51.446;-2.018;2022-10-16T06:56:52;100041.72;;;8.55;100.00
55679;BME280;41573;51.446;-2.018;2022-10-16T06:59:22;100040.38;;;8.48;100.00
55679;BME280;41573;51.446;-2.018;2022-10-16T07:01:48;100046.78;;;8.43;100.00
55679;BME280;41573;51.446;-2.018;2022-10-16T07:04:13;100044.31;;;8.40;100.00
55679;BME280;41573;51.446;-2.018;2022-10-16T07:06:39;100051.59;;;8.37;100.00
55679;BME280;41573;51.446;-2.018;2022-10-16T07:09:08;100064.84;;;8.37;100.00
55679;BME280;41573;51.446;-2.018;2022-10-16T07:11:34;100065.72;;;8.37;100.00
55679;BME280;41573;51.446;-2.018;2022-10-16T07:14:01;100070.84;;;8.40;100.00
55679;BME280;41573;51.446;-2.018;2022-10-16T07:16:28;100079.56;;;8.42;100.00
55679;BME280;41573;51.446;-2.018;2022-10-16T07:18:58;100074.88;;;8.48;100.00
55679;BME280;41573;51.446;-2.018;2022-10-16T07:21:26;100087.75;;;8.54;100.00
55679;BME280;41573;51.446;-2.018;2022-10-16T07:23:53;100078.47;;;8.61;100.00
55679;BME280;41573;51.446;-2.018;2022-10-16T07:26:19;100077.16;;;8.68;100.00
55679;BME280;41573;51.446;-2.018;2022-10-16T07:28:45;100089.06;;;8.77;100.00
55679;BME280;41573;51.446;-2.018;2022-10-16T07:31:13;100094.63;;;8.87;100.00
55679;BME280;41573;51.446;-2.018;2022-10-16T07:33:40;100096.66;;;8.97;100.00
55679;BME280;41573;51.446;-2.018;2022-10-16T07:36:08;100097.78;;;9.08;100.00
55679;BME280;41573;51.446;-2.018;2022-10-16T07:38:33;100105.28;;;9.16;100.00
55679;BME280;41573;51.446;-2.018;2022-10-16T07:41:06;100113.25;;;9.30;100.00
55679;BME280;41573;51.446;-2.018;2022-10-16T07:43:32;100107.91;;;9.44;100.00
55679;BME280;41573;51.446;-2.018;2022-10-16T07:45:58;100107.69;;;9.62;100.00
55679;BME280;41573;51.446;-2.018;2022-10-16T07:48:27;100105.97;;;9.75;100.00
55679;BME280;41573;51.446;-2.018;2022-10-16T07:50:59;100107.81;;;9.88;100.00
55679;BME280;41573;51.446;-2.018;2022-10-16T07:53:25;100102.84;;;9.96;100.00
55679;BME280;41573;51.446;-2.018;2022-10-16T07:55:51;100102.16;;;10.07;100.00
55679;BME280;41573;51.446;-2.018;2022-10-16T07:58:16;100110.50;;;10.15;100.00
55679;BME280;41573;51.446;-2.018;2022-10-16T08:00:42;100113.59;;;10.22;100.00
55679;BME280;41573;51.446;-2.018;2022-10-16T08:03:08;100124.38;;;10.33;100.00
55679;BME280;41573;51.446;-2.018;2022-10-16T08:05:34;100122.84;;;10.43;100.00
55679;BME280;41573;51.446;-2.018;2022-10-16T08:08:00;100131.16;;;10.51;100.00
55679;BME280;41573;51.446;-2.018;2022-10-16T08:10:27;100135.78;;;10.62;100.00
55679;BME280;41573;51.446;-2.018;2022-10-16T08:12:53;100133.44;;;10.71;100.00
55679;BME280;41573;51.446;-2.018;2022-10-16T08:15:19;100141.66;;;10.80;100.00
55679;BME280;41573;51.446;-2.018;2022-10-16T08:17:45;100150.94;;;10.88;100.00
55679;BME280;41573;51.446;-2.018;2022-10-16T08:20:18;100143.25;;;10.96;100.00
55679;BME280;41573;51.446;-2.018;2022-10-16T08:22:44;100146.47;;;11.01;100.00
55679;BME280;41573;51.446;-2.018;2022-10-16T08:25:09;100152.22;;;11.08;100.00
55679;BME280;41573;51.446;-2.018;2022-10-16T08:27:34;100160.66;;;11.14;100.00
55679;BME280;41573;51.446;-2.018;2022-10-16T08:30:00;100163.41;;;11.26;100.00
55679;BME280;41573;51.446;-2.018;2022-10-16T08:32:25;100169.94;;;11.34;100.00
55679;BME280;41573;51.446;-2.018;2022-10-16T08:34:51;100168.84;;;11.37;100.00
55679;BME280;41573;51.446;-2.018;2022-10-16T08:37:16;100161.91;;;11.47;100.00
55679;BME280;41573;51.446;-2.018;2022-10-16T08:39:42;100163.41;;;11.51;100.00
55679;BME280;41573;51.446;-2.018;2022-10-16T08:50:10;100172.22;;;11.65;100.00
55679;BME280;41573;51.446;-2.018;2022-10-16T08:52:39;100177.13;;;11.71;100.00
55679;BME280;41573;51.446;-2.018;2022-10-16T08:55:06;100172.84;;;11.81;100.00
55679;BME280;41573;51.446;-2.018;2022-10-16T08:57:32;100172.63;;;11.84;100.00
55679;BME280;41573;51.446;-2.018;2022-10-16T09:00:11;100172.16;;;11.90;100.00
55679;BME280;41573;51.446;-2.018;2022-10-16T09:02:43;100177.09;;;11.97;100.00
55679;BME280;41573;51.446;-2.018;2022-10-16T09:08:36;100179.16;;;12.17;100.00
55679;BME280;41573;51.446;-2.018;2022-10-16T09:16:47;100173.81;;;12.41;100.00
55679;BME280;41573;51.446;-2.018;2022-10-16T09:19:33;100181.38;;;12.48;100.00
55679;BME280;41573;51.446;-2.018;2022-10-16T09:22:14;100178.13;;;12.55;100.00
55679;BME280;41573;51.446;-2.018;2022-10-16T09:24:40;100180.56;;;12.58;100.00
55679;BME280;41573;51.446;-2.018;2022-10-16T09:27:15;100177.91;;;12.58;100.00
55679;BME280;41573;51.446;-2.018;2022-10-16T09:29:40;100179.66;;;12.71;100.00
55679;BME280;41573;51.446;-2.018;2022-10-16T09:32:15;100185.25;;;12.79;100.00
55679;BME280;41573;51.446;-2.018;2022-10-16T09:34:47;100188.72;;;12.92;100.00
55679;BME280;41573;51.446;-2.018;2022-10-16T09:37:16;100186.94;;;13.16;100.00
55679;BME280;41573;51.446;-2.018;2022-10-16T09:39:50;100187.56;;;13.19;100.00
55679;BME280;41573;51.446;-2.018;2022-10-16T09:42:21;100187.91;;;13.26;100.00
55679;BME280;41573;51.446;-2.018;2022-10-16T09:44:49;100187.25;;;13.35;100.00
55679;BME280;41573;51.446;-2.018;2022-10-16T09:47:18;100189.31;;;13.43;100.00
55679;BME280;41573;51.446;-2.018;2022-10-16T09:50:02;100189.94;;;13.47;100.00
55679;BME280;41573;51.446;-2.018;2022-10-16T09:52:31;100188.34;;;13.55;100.00
55679;BME280;41573;51.446;-2.018;2022-10-16T09:55:03;100194.66;;;13.66;100.00
55679;BME280;41573;51.446;-2.018;2022-10-16T09:57:48;100195.16;;;13.71;100.00
55679;BME280;41573;51.446;-2.018;2022-10-16T10:00:16;100192.47;;;13.82;100.00
55679;BME280;41573;51.446;-2.018;2022-10-16T10:02:43;100192.09;;;13.87;100.00
55679;BME280;41573;51.446;-2.018;2022-10-16T10:05:24;100184.44;;;13.93;100.00
55679;BME280;41573;51.446;-2.018;2022-10-16T10:08:03;100180.78;;;14.06;100.00
55679;BME280;41573;51.446;-2.018;2022-10-16T10:10:33;100178.28;;;14.14;100.00
55679;BME280;41573;51.446;-2.018;2022-10-16T10:12:59;100179.47;;;14.32;100.00
55679;BME280;41573;51.446;-2.018;2022-10-16T10:15:32;100175.19;;;14.41;100.00
55679;BME280;41573;51.446;-2.018;2022-10-16T10:17:58;100176.63;;;14.45;100.00
55679;BME280;41573;51.446;-2.018;2022-10-16T10:20:34;100177.94;;;14.51;100.00
55679;BME280;41573;51.446;-2.018;2022-10-16T10:23:21;100183.28;;;14.62;100.00
55679;BME280;41573;51.446;-2.018;2022-10-16T10:28:45;100173.59;;;14.82;100.00
55679;BME280;41573;51.446;-2.018;2022-10-16T10:31:18;100174.63;;;14.91;100.00
55679;BME280;41573;51.446;-2.018;2022-10-16T10:34:24;100166.72;;;15.11;100.00
55679;BME280;41573;51.446;-2.018;2022-10-16T10:36:41;100167.28;;;15.14;100.00
55679;BME280;41573;51.446;-2.018;2022-10-16T10:39:15;100166.88;;;15.19;100.00
55679;BME280;41573;51.446;-2.018;2022-10-16T10:44:29;100159.91;;;15.07;100.00
55679;BME280;41573;51.446;-2.018;2022-10-16T10:47:00;100164.88;;;15.11;100.00
55679;BME280;41573;51.446;-2.018;2022-10-16T10:57:45;100165.50;;;15.04;100.00
55679;BME280;41573;51.446;-2.018;2022-10-16T11:00:31;100166.38;;;14.83;100.00
55679;BME280;41573;51.446;-2.018;2022-10-16T11:06:05;100178.53;;;14.87;100.00
55679;BME280;41573;51.446;-2.018;2022-10-16T11:08:35;100170.31;;;15.00;100.00
55679;BME280;41573;51.446;-2.018;2022-10-16T11:11:14;100177.19;;;15.14;100.00
55679;BME280;41573;51.446;-2.018;2022-10-16T11:14:06;100163.59;;;15.37;100.00
55679;BME280;41573;51.446;-2.018;2022-10-16T11:16:43;100160.19;;;15.34;100.00
55679;BME280;41573;51.446;-2.018;2022-10-16T11:19:19;100167.97;;;15.38;100.00
55679;BME280;41573;51.446;-2.018;2022-10-16T11:21:50;100156.00;;;15.21;100.00
55679;BME280;41573;51.446;-2.018;2022-10-16T11:24:23;100150.97;;;15.27;100.00
55679;BME280;41573;51.446;-2.018;2022-10-16T11:26:55;100145.72;;;15.47;100.00
55679;BME280;41573;51.446;-2.018;2022-10-16T11:29:27;100151.44;;;15.73;100.00
55679;BME280;41573;51.446;-2.018;2022-10-16T11:31:58;100148.13;;;15.81;100.00
55679;BME280;41573;51.446;-2.018;2022-10-16T11:34:33;100149.00;;;16.01;100.00
55679;BME280;41573;51.446;-2.018;2022-10-16T11:37:14;100149.44;;;16.16;100.00
55679;BME280;41573;51.446;-2.018;2022-10-16T11:39:42;100148.06;;;16.31;100.00
55679;BME280;41573;51.446;-2.018;2022-10-16T11:42:10;100149.78;;;16.42;100.00
55679;BME280;41573;51.446;-2.018;2022-10-16T11:44:57;100152.72;;;16.68;100.00
55679;BME280;41573;51.446;-2.018;2022-10-16T11:47:37;100153.00;;;16.65;100.00
55679;BME280;41573;51.446;-2.018;2022-10-16T11:55:45;100154.72;;;16.57;100.00
55679;BME280;41573;51.446;-2.018;2022-10-16T11:58:22;100151.44;;;16.63;100.00
55679;BME280;41573;51.446;-2.018;2022-10-16T12:01:22;100150.47;;;16.74;100.00
55679;BME280;41573;51.446;-2.018;2022-10-16T12:04:28;100147.47;;;16.77;100.00
55679;BME280;41573;51.446;-2.018;2022-10-16T12:07:32;100147.34;;;16.68;100.00
55679;BME280;41573;51.446;-2.018;2022-10-16T12:10:11;100141.84;;;16.60;100.00
55679;BME280;41573;51.446;-2.018;2022-10-16T12:12:43;100137.47;;;16.40;100.00
55679;BME280;41573;51.446;-2.018;2022-10-16T12:17:46;100126.84;;;16.28;100.00
55679;BME280;41573;51.446;-2.018;2022-10-16T12:22:41;100114.53;;;16.35;100.00
55679;BME280;41573;51.446;-2.018;2022-10-16T12:25:26;100127.56;;;16.30;100.00
55679;BME280;41573;51.446;-2.018;2022-10-16T12:28:05;100130.25;;;16.20;100.00
55679;BME280;41573;51.446;-2.018;2022-10-16T12:30:34;100125.84;;;16.10;100.00
55679;BME280;41573;51.446;-2.018;2022-10-16T12:33:21;100122.41;;;15.88;100.00
55679;BME280;41573;51.446;-2.018;2022-10-16T12:35:48;100131.38;;;15.77;100.00
55679;BME280;41573;51.446;-2.018;2022-10-16T12:38:24;100132.78;;;15.72;100.00
55679;BME280;41573;51.446;-2.018;2022-10-16T12:41:07;100129.94;;;15.63;100.00
55679;BME280;41573;51.446;-2.018;2022-10-16T12:48:38;100143.66;;;16.11;100.00
55679;BME280;41573;51.446;-2.018;2022-10-16T12:51:12;100130.66;;;16.16;100.00
55679;BME280;41573;51.446;-2.018;2022-10-16T12:53:38;100132.66;;;16.24;100.00
55679;BME280;41573;51.446;-2.018;2022-10-16T12:56:27;100130.38;;;16.38;100.00
55679;BME280;41573;51.446;-2.018;2022-10-16T13:04:37;100119.38;;;16.42;100.00
55679;BME280;41573;51.446;-2.018;2022-10-16T13:28:40;100092.06;;;16.17;100.00
55679;BME280;41573;51.446;-2.018;2022-10-16T13:31:14;100092.50;;;16.12;100.00
55679;BME280;41573;51.446;-2.018;2022-10-16T13:33:43;100096.44;;;16.08;100.00
55679;BME280;41573;51.446;-2.018;2022-10-16T13:36:29;100089.66;;;16.04;100.00
55679;BME280;41573;51.446;-2.018;2022-10-16T13:39:12;100093.91;;;16.07;100.00
55679;BME280;41573;51.446;-2.018;2022-10-16T13:41:38;100081.16;;;16.09;100.00
55679;BME280;41573;51.446;-2.018;2022-10-16T13:44:05;100075.78;;;16.09;100.00
55679;BME280;41573;51.446;-2.018;2022-10-16T13:46:37;100075.78;;;16.09;100.00
55679;BME280;41573;51.446;-2.018;2022-10-16T13:49:05;100076.34;;;16.02;100.00
55679;BME280;41573;51.446;-2.018;2022-10-16T13:51:32;100074.66;;;16.01;100.00
55679;BME280;41573;51.446;-2.018;2022-10-16T13:53:58;100085.69;;;15.98;100.00
55679;BME280;41573;51.446;-2.018;2022-10-16T13:56:29;100075.22;;;15.95;100.00
55679;BME280;41573;51.446;-2.018;2022-10-16T13:58:59;100075.78;;;15.89;100.00
55679;BME280;41573;51.446;-2.018;2022-10-16T14:01:39;100073.50;;;15.84;100.00
55679;BME280;41573;51.446;-2.018;2022-10-16T14:04:08;100077.19;;;15.83;100.00
55679;BME280;41573;51.446;-2.018;2022-10-16T14:06:35;100082.22;;;15.77;100.00
55679;BME280;41573;51.446;-2.018;2022-10-16T14:09:07;100079.09;;;15.72;100.00
55679;BME280;41573;51.446;-2.018;2022-10-16T14:11:36;100074.75;;;15.71;100.00
55679;BME280;41573;51.446;-2.018;2022-10-16T14:14:11;100075.72;;;15.69;100.00
55679;BME280;41573;51.446;-2.018;2022-10-16T14:16:40;100079.09;;;15.72;100.00
55679;BME280;41573;51.446;-2.018;2022-10-16T14:21:42;100079.94;;;15.62;100.00
55679;BME280;41573;51.446;-2.018;2022-10-16T14:24:12;100077.25;;;15.62;100.00